createdAt,value
2023-04-16T00:07:06.126Z,4.10
2023-04-16T00:22:07.943Z,3.87
2023-04-16T00:37:09.819Z,2.97
2023-04-16T00:52:12.220Z,2.60
2023-04-16T01:07:14.066Z,3.20
2023-04-16T01:22:16.479Z,3.10
2023-04-16T01:37:18.380Z,3.07
2023-04-16T01:52:20.342Z,3.33
2023-04-16T02:07:22.200Z,3.23
2023-04-16T02:22:24.279Z,3.10
2023-04-16T02:37:26.171Z,4.60
2023-04-16T02:52:28.082Z,3.17
2023-04-16T03:07:29.905Z,4.07
2023-04-16T03:22:31.712Z,3.33
2023-04-16T07:14:16.984Z,6.60
2023-04-16T07:29:18.832Z,6.00
2023-04-16T07:44:20.814Z,5.83
2023-04-16T07:59:24.390Z,5.47
2023-04-16T08:14:26.516Z,5.23
2023-04-16T08:29:28.468Z,3.63
2023-04-16T08:44:37.720Z,4.00
2023-04-16T08:59:40.627Z,3.40
2023-04-16T09:14:43.242Z,3.50
2023-04-16T09:29:45.225Z,3.20
2023-04-16T09:44:50.142Z,2.33
2023-04-16T10:00:01.287Z,3.17
2023-04-16T10:15:03.397Z,3.10
2023-04-16T10:30:07.514Z,2.90
2023-04-16T10:45:11.491Z,2.77
2023-04-16T11:00:23.418Z,2.57
2023-04-16T11:15:30.984Z,2.87
2023-04-16T11:30:38.446Z,4.00
2023-04-16T11:45:53.678Z,2.80
2023-04-16T12:00:59.738Z,3.07
2023-04-16T12:16:02.250Z,2.93
2023-04-16T12:31:05.119Z,3.00
2023-04-16T12:46:07.036Z,2.90
2023-04-16T13:01:08.935Z,5.17
2023-04-16T13:16:11.483Z,2.60
2023-04-16T13:31:15.865Z,3.23
2023-04-16T13:46:19.011Z,3.40
2023-04-16T14:01:21.066Z,4.10
2023-04-16T14:16:23.299Z,3.67
2023-04-16T14:31:25.818Z,2.97
2023-04-16T14:46:27.714Z,2.83
2023-04-16T15:01:29.654Z,3.50
2023-04-16T15:16:31.584Z,3.33
2023-04-16T15:31:33.585Z,3.30
2023-04-16T15:46:35.619Z,3.10
2023-04-16T16:01:37.624Z,5.13
2023-04-16T16:16:40.310Z,3.37
2023-04-16T16:31:42.299Z,3.60
2023-04-16T16:46:44.255Z,4.00
2023-04-16T17:01:46.233Z,7.17
2023-04-16T17:16:49.961Z,9.60
2023-04-16T17:31:53.943Z,9.00
2023-04-16T17:46:55.886Z,3.33
2023-04-16T18:01:57.954Z,3.87
2023-04-16T18:17:03.067Z,3.77
2023-04-16T18:32:06.533Z,5.70
2023-04-16T18:47:08.691Z,4.53
2023-04-16T19:02:10.757Z,4.80
2023-04-16T19:17:12.778Z,6.40
2023-04-16T19:32:14.738Z,5.37
2023-04-16T19:47:16.622Z,4.13
2023-04-16T20:02:18.509Z,5.70
2023-04-16T20:17:20.466Z,6.10
2023-04-16T20:32:22.429Z,5.60
2023-04-16T20:47:24.288Z,4.30
2023-04-16T21:02:28.373Z,3.87
2023-04-16T21:17:30.755Z,4.43
2023-04-16T21:32:32.790Z,5.30
2023-04-16T21:47:34.738Z,4.87
2023-04-16T22:02:36.957Z,5.13
2023-04-16T22:17:39.502Z,4.53
2023-04-16T22:32:41.404Z,6.27
2023-04-16T22:47:43.465Z,5.67
2023-04-16T23:02:45.578Z,5.87
2023-04-16T23:17:48.103Z,6.53
2023-04-16T23:32:50.152Z,6.30
2023-04-16T23:47:52.246Z,6.40
